createdAt,value
2023-05-14T15:47:23.832Z,19.01
2023-05-14T15:49:51.510Z,18.99
2023-05-14T15:52:19.243Z,18.99
2023-05-14T15:54:47.408Z,19.00
2023-05-14T15:57:16.948Z,19.02
2023-05-14T15:59:47.178Z,19.04
2023-05-14T16:02:15.481Z,19.05
2023-05-14T16:04:45.261Z,19.07
2023-05-14T16:07:13.533Z,19.08
2023-05-14T16:09:41.531Z,19.08
2023-05-14T16:12:09.473Z,19.07
2023-05-14T16:14:37.770Z,19.08
2023-05-14T16:17:06.444Z,19.08
2023-05-14T16:19:34.092Z,19.07
2023-05-14T16:22:01.852Z,19.05
2023-05-14T16:24:29.596Z,19.04
2023-05-14T16:26:57.481Z,19.05
2023-05-14T16:29:25.370Z,19.05
2023-05-14T16:31:53.190Z,19.04
2023-05-14T16:34:21.220Z,19.03
2023-05-14T16:36:48.976Z,19.01
2023-05-14T16:39:17.557Z,18.99
2023-05-14T16:41:45.578Z,18.98
2023-05-14T16:44:13.443Z,18.96
2023-05-14T16:46:41.144Z,18.93
2023-05-14T16:49:08.972Z,18.91
2023-05-14T16:51:42.259Z,18.89
2023-05-14T16:54:10.340Z,18.86
2023-05-14T16:56:38.079Z,18.84
2023-05-14T16:59:07.567Z,18.81
2023-05-14T17:01:35.956Z,18.78
2023-05-14T17:04:03.991Z,18.76
2023-05-14T17:06:32.007Z,18.74
2023-05-14T17:08:59.852Z,18.72
2023-05-14T17:11:27.714Z,18.71
2023-05-14T17:14:00.406Z,18.69
2023-05-14T17:18:56.621Z,18.65
2023-05-14T17:21:24.608Z,18.62
2023-05-14T17:23:52.392Z,18.58
2023-05-14T17:26:20.177Z,18.56
2023-05-14T17:28:48.018Z,18.54
2023-05-14T17:31:16.006Z,18.52
2023-05-14T17:33:43.843Z,18.50
2023-05-14T17:36:11.704Z,18.48
2023-05-14T17:38:39.540Z,18.45
2023-05-14T17:41:07.631Z,18.44
2023-05-14T17:43:35.790Z,18.42
2023-05-14T17:46:04.220Z,18.40
2023-05-14T17:48:32.758Z,18.37
2023-05-14T17:51:00.840Z,18.34
2023-05-14T17:53:28.741Z,18.33
2023-05-14T17:55:56.578Z,18.29
2023-05-14T17:58:24.479Z,18.26
2023-05-14T18:00:52.269Z,18.22
2023-05-14T18:03:20.638Z,18.18
2023-05-14T18:05:48.642Z,18.15
2023-05-14T18:08:17.204Z,18.10
2023-05-14T18:10:45.018Z,18.08
2023-05-14T18:13:12.727Z,18.05
2023-05-14T18:15:40.677Z,18.02
2023-05-14T18:18:08.579Z,17.99
2023-05-14T18:20:36.463Z,17.95
2023-05-14T18:23:04.721Z,17.92
2023-05-14T18:25:32.470Z,17.89
2023-05-14T18:28:00.386Z,17.85
2023-05-14T18:30:28.177Z,17.81
2023-05-14T18:32:55.941Z,17.78
2023-05-14T18:35:23.819Z,17.76
2023-05-14T18:37:51.988Z,17.74
2023-05-14T18:40:19.805Z,17.70
2023-05-14T18:42:47.731Z,17.67
2023-05-14T18:45:16.064Z,17.62
2023-05-14T18:47:44.062Z,17.56
2023-05-14T18:50:12.021Z,17.54
2023-05-14T18:52:39.963Z,17.52
2023-05-14T18:55:08.153Z,17.51
2023-05-14T18:57:36.776Z,17.48
2023-05-14T19:00:05.228Z,17.46
2023-05-14T19:02:32.972Z,17.44
2023-05-14T19:05:01.235Z,17.43
2023-05-14T19:07:30.524Z,17.41
2023-05-14T19:09:58.252Z,17.41
2023-05-14T19:12:26.926Z,17.40
2023-05-14T19:14:54.942Z,17.39
2023-05-14T19:17:22.898Z,17.38
2023-05-14T19:19:50.932Z,17.36
2023-05-14T19:22:19.540Z,17.34
2023-05-14T19:24:47.310Z,17.31
2023-05-14T19:27:16.792Z,17.28
2023-05-14T19:29:44.688Z,17.25
2023-05-14T19:32:12.498Z,17.23
2023-05-14T19:34:40.595Z,17.21
2023-05-14T19:37:08.645Z,17.17
2023-05-14T19:39:36.373Z,17.15
2023-05-14T19:42:04.478Z,17.11
2023-05-14T19:44:32.705Z,17.08
2023-05-14T19:47:00.751Z,17.04
2023-05-14T19:49:28.654Z,16.99
2023-05-14T19:51:56.659Z,16.91
2023-05-14T19:54:24.580Z,16.84
2023-05-14T19:56:52.564Z,16.81
2023-05-14T19:59:20.468Z,16.76
2023-05-14T20:01:48.403Z,16.71
2023-05-14T20:04:16.412Z,16.67
2023-05-14T20:06:45.582Z,16.64
2023-05-14T20:09:16.445Z,16.60
2023-05-14T20:11:44.211Z,16.53
2023-05-14T20:14:12.347Z,16.48
2023-05-14T20:16:40.354Z,16.46
2023-05-14T20:19:08.336Z,16.45
2023-05-14T20:21:36.440Z,16.48
2023-05-14T20:24:04.692Z,16.51
2023-05-14T20:26:32.591Z,16.49
2023-05-14T20:29:00.886Z,16.48
2023-05-14T20:31:29.112Z,16.35
2023-05-14T20:33:57.015Z,16.21
2023-05-14T20:36:25.820Z,16.09
2023-05-14T20:38:53.712Z,16.06
2023-05-14T20:41:22.359Z,16.05
2023-05-14T20:43:50.184Z,16.06
2023-05-14T20:46:18.008Z,16.06
2023-05-14T20:48:47.257Z,16.07
2023-05-14T20:51:15.005Z,16.08
2023-05-14T20:53:42.964Z,16.10
2023-05-14T20:56:11.107Z,16.13
2023-05-14T20:58:38.849Z,16.17
2023-05-14T21:01:08.302Z,16.13
2023-05-14T21:03:36.434Z,16.09
2023-05-14T21:06:04.400Z,16.03
2023-05-14T21:08:33.145Z,15.93
2023-05-14T21:11:00.976Z,15.83
2023-05-14T21:13:28.802Z,15.77
2023-05-14T21:15:56.712Z,15.75
2023-05-14T21:18:27.139Z,15.80
2023-05-14T21:20:55.010Z,15.89
2023-05-14T21:23:22.956Z,15.96
2023-05-14T21:25:51.174Z,16.00
2023-05-14T21:28:18.977Z,16.00
2023-05-14T21:30:46.882Z,15.95
2023-05-14T21:33:15.679Z,15.84
2023-05-14T21:35:43.441Z,15.72
2023-05-14T21:38:14.422Z,15.65
2023-05-14T21:40:42.425Z,15.60
2023-05-14T21:43:10.306Z,15.55
2023-05-14T21:45:40.794Z,15.57
2023-05-14T21:48:08.892Z,15.59
2023-05-14T21:50:37.195Z,15.61
2023-05-14T21:53:05.204Z,15.60
2023-05-14T21:55:33.043Z,15.55
2023-05-14T21:58:00.971Z,15.52
2023-05-14T22:00:29.107Z,15.58
2023-05-14T22:02:56.839Z,15.66
2023-05-14T22:05:24.918Z,15.70
2023-05-14T22:07:52.956Z,15.71
2023-05-14T22:10:20.880Z,15.73
2023-05-14T22:12:57.225Z,15.74
2023-05-14T22:15:25.220Z,15.71
2023-05-14T22:17:53.308Z,15.68
2023-05-14T22:20:21.516Z,15.68
2023-05-14T22:22:50.045Z,15.68
2023-05-14T22:25:17.789Z,15.69
2023-05-14T22:27:45.531Z,15.71
2023-05-14T22:30:13.397Z,15.70
2023-05-14T22:32:41.370Z,15.73
2023-05-14T22:35:09.344Z,15.76
2023-05-14T22:37:37.257Z,15.74
2023-05-14T22:40:05.729Z,15.73
2023-05-14T22:42:33.657Z,15.72
2023-05-14T22:45:01.483Z,15.71
2023-05-14T22:47:29.618Z,15.74
2023-05-14T22:49:57.466Z,15.74
2023-05-14T22:52:26.095Z,15.72
2023-05-14T22:54:54.777Z,15.66
2023-05-14T22:57:23.662Z,15.61
2023-05-14T23:00:06.866Z,15.52
2023-05-14T23:02:34.839Z,15.46
2023-05-14T23:05:02.869Z,15.43
2023-05-14T23:07:30.784Z,15.43
2023-05-14T23:09:58.452Z,15.46
2023-05-14T23:12:26.277Z,15.48
2023-05-14T23:14:54.199Z,15.44
2023-05-14T23:17:22.037Z,15.41
2023-05-14T23:19:50.056Z,15.35
2023-05-14T23:22:17.931Z,15.28
2023-05-14T23:24:45.826Z,15.30
2023-05-14T23:27:13.688Z,15.31
2023-05-14T23:29:41.392Z,15.37
2023-05-14T23:32:09.401Z,15.39
2023-05-14T23:34:37.298Z,15.36
2023-05-14T23:37:05.384Z,15.34
2023-05-14T23:39:33.450Z,15.35
2023-05-14T23:42:01.186Z,15.37
2023-05-14T23:44:29.060Z,15.40
2023-05-14T23:46:56.851Z,15.44
2023-05-14T23:49:24.733Z,15.50
2023-05-14T23:51:52.727Z,15.54
2023-05-14T23:54:21.300Z,15.55
2023-05-14T23:56:49.221Z,15.55
2023-05-14T23:59:16.982Z,15.53
